sensor_id;sensor_type;location;lat;lon;timestamp;temperature;humidity
45643;DHT22;31358;46.008;11.144;2023-03-17T00:00:19;6.20;92.30
45643;DHT22;31358;46.008;11.144;2023-03-17T00:02:47;6.00;92.40
45643;DHT22;31358;46.008;11.144;2023-03-17T00:05:15;5.90;92.90
45643;DHT22;31358;46.008;11.144;2023-03-17T00:07:42;5.90;92.80
45643;DHT22;31358;46.008;11.144;2023-03-17T00:10:14;5.90;92.90
45643;DHT22;31358;46.008;11.144;2023-03-17T00:12:42;5.90;93.00
45643;DHT22;31358;46.008;11.144;2023-03-17T00:15:08;6.00;93.10
45643;DHT22;31358;46.008;11.144;2023-03-17T00:17:35;6.00;93.00
45643;DHT22;31358;46.008;11.144;2023-03-17T00:20:01;5.80;93.50
45643;DHT22;31358;46.008;11.144;2023-03-17T00:22:27;5.70;93.50
45643;DHT22;31358;46.008;11.144;2023-03-17T00:24:53;5.60;93.90
45643;DHT22;31358;46.008;11.144;2023-03-17T00:27:18;5.60;93.80
45643;DHT22;31358;46.008;11.144;2023-03-17T00:29:45;5.80;93.50
45643;DHT22;31358;46.008;11.144;2023-03-17T00:32:18;5.70;93.90
45643;DHT22;31358;46.008;11.144;2023-03-17T00:34:45;5.80;93.40
45643;DHT22;31358;46.008;11.144;2023-03-17T00:37:11;5.80;93.50
45643;DHT22;31358;46.008;11.144;2023-03-17T00:39:38;6.00;93.20
45643;DHT22;31358;46.008;11.144;2023-03-17T00:42:05;6.10;92.80
45643;DHT22;31358;46.008;11.144;2023-03-17T00:44:31;6.20;92.70
45643;DHT22;31358;46.008;11.144;2023-03-17T00:46:58;6.00;93.00
45643;DHT22;31358;46.008;11.144;2023-03-17T00:49:24;6.10;92.80
45643;DHT22;31358;46.008;11.144;2023-03-17T00:51:51;6.20;92.70
45643;DHT22;31358;46.008;11.144;2023-03-17T00:54:18;6.10;92.90
45643;DHT22;31358;46.008;11.144;2023-03-17T00:56:45;6.20;92.70
45643;DHT22;31358;46.008;11.144;2023-03-17T00:59:37;6.10;92.80
45643;DHT22;31358;46.008;11.144;2023-03-17T01:02:03;5.90;93.30
45643;DHT22;31358;46.008;11.144;2023-03-17T01:04:28;6.00;93.10
45643;DHT22;31358;46.008;11.144;2023-03-17T01:06:54;5.90;93.40
45643;DHT22;31358;46.008;11.144;2023-03-17T01:09:24;5.90;93.50
45643;DHT22;31358;46.008;11.144;2023-03-17T01:11:50;5.80;93.80
45643;DHT22;31358;46.008;11.144;2023-03-17T01:14:16;5.80;93.70
45643;DHT22;31358;46.008;11.144;2023-03-17T01:16:42;5.50;94.00
45643;DHT22;31358;46.008;11.144;2023-03-17T01:19:11;5.60;94.00
45643;DHT22;31358;46.008;11.144;2023-03-17T01:21:36;5.60;94.00
45643;DHT22;31358;46.008;11.144;2023-03-17T01:24:02;5.80;93.80
45643;DHT22;31358;46.008;11.144;2023-03-17T01:26:28;5.80;93.70
45643;DHT22;31358;46.008;11.144;2023-03-17T01:28:54;5.70;94.00
45643;DHT22;31358;46.008;11.144;2023-03-17T01:31:20;5.40;94.50
45643;DHT22;31358;46.008;11.144;2023-03-17T01:33:47;5.20;94.90
45643;DHT22;31358;46.008;11.144;2023-03-17T01:36:13;5.10;94.90
45643;DHT22;31358;46.008;11.144;2023-03-17T01:38:40;5.20;94.80
45643;DHT22;31358;46.008;11.144;2023-03-17T01:41:05;5.30;94.90
45643;DHT22;31358;46.008;11.144;2023-03-17T01:43:32;5.50;94.50
45643;DHT22;31358;46.008;11.144;2023-03-17T01:49:12;5.20;95.00
45643;DHT22;31358;46.008;11.144;2023-03-17T01:54:45;5.20;95.20
45643;DHT22;31358;46.008;11.144;2023-03-17T02:00:06;5.10;95.40
45643;DHT22;31358;46.008;11.144;2023-03-17T02:02:39;5.00;95.80
45643;DHT22;31358;46.008;11.144;2023-03-17T02:05:08;5.00;95.60
45643;DHT22;31358;46.008;11.144;2023-03-17T02:07:34;5.20;95.30
45643;DHT22;31358;46.008;11.144;2023-03-17T02:10:02;5.30;95.00
45643;DHT22;31358;46.008;11.144;2023-03-17T02:12:29;5.40;94.80
45643;DHT22;31358;46.008;11.144;2023-03-17T02:14:55;5.50;94.60
45643;DHT22;31358;46.008;11.144;2023-03-17T02:17:25;5.50;94.80
45643;DHT22;31358;46.008;11.144;2023-03-17T02:19:53;5.40;95.00
45643;DHT22;31358;46.008;11.144;2023-03-17T02:22:19;5.30;95.00
45643;DHT22;31358;46.008;11.144;2023-03-17T02:24:51;5.30;95.30
45643;DHT22;31358;46.008;11.144;2023-03-17T02:27:27;5.30;95.00
45643;DHT22;31358;46.008;11.144;2023-03-17T02:29:56;5.30;95.20
45643;DHT22;31358;46.008;11.144;2023-03-17T02:32:22;5.30;95.20
45643;DHT22;31358;46.008;11.144;2023-03-17T02:34:48;5.20;95.20
45643;DHT22;31358;46.008;11.144;2023-03-17T02:37:15;5.20;95.30
45643;DHT22;31358;46.008;11.144;2023-03-17T02:39:41;5.10;95.60
45643;DHT22;31358;46.008;11.144;2023-03-17T02:42:08;5.20;95.30
45643;DHT22;31358;46.008;11.144;2023-03-17T02:44:34;5.20;95.40
45643;DHT22;31358;46.008;11.144;2023-03-17T02:46:59;4.90;96.10
45643;DHT22;31358;46.008;11.144;2023-03-17T02:49:26;5.10;95.80
45643;DHT22;31358;46.008;11.144;2023-03-17T02:51:52;5.10;95.80
45643;DHT22;31358;46.008;11.144;2023-03-17T02:54:18;5.10;95.80
45643;DHT22;31358;46.008;11.144;2023-03-17T02:56:44;5.10;95.80
45643;DHT22;31358;46.008;11.144;2023-03-17T02:59:10;5.20;95.50
45643;DHT22;31358;46.008;11.144;2023-03-17T03:01:36;5.20;95.50
45643;DHT22;31358;46.008;11.144;2023-03-17T03:04:04;5.20;95.50
45643;DHT22;31358;46.008;11.144;2023-03-17T03:06:29;5.20;95.80
45643;DHT22;31358;46.008;11.144;2023-03-17T03:08:56;5.00;96.00
45643;DHT22;31358;46.008;11.144;2023-03-17T03:11:22;4.80;96.40
45643;DHT22;31358;46.008;11.144;2023-03-17T03:13:47;4.90;96.50
45643;DHT22;31358;46.008;11.144;2023-03-17T03:16:13;4.80;96.40
45643;DHT22;31358;46.008;11.144;2023-03-17T03:18:39;4.80;96.60
45643;DHT22;31358;46.008;11.144;2023-03-17T03:21:05;4.80;96.40
45643;DHT22;31358;46.008;11.144;2023-03-17T03:23:31;4.90;96.50
45643;DHT22;31358;46.008;11.144;2023-03-17T03:25:57;4.80;96.30
45643;DHT22;31358;46.008;11.144;2023-03-17T03:28:23;4.90;96.50
45643;DHT22;31358;46.008;11.144;2023-03-17T03:30:49;4.80;96.30
45643;DHT22;31358;46.008;11.144;2023-03-17T03:33:15;4.90;96.30
45643;DHT22;31358;46.008;11.144;2023-03-17T03:35:41;5.00;96.00
45643;DHT22;31358;46.008;11.144;2023-03-17T03:38:07;5.10;95.80
45643;DHT22;31358;46.008;11.144;2023-03-17T03:40:34;5.00;96.00
45643;DHT22;31358;46.008;11.144;2023-03-17T03:43:00;4.80;96.20
45643;DHT22;31358;46.008;11.144;2023-03-17T03:45:26;4.70;96.40
45643;DHT22;31358;46.008;11.144;2023-03-17T03:47:52;4.60;96.60
45643;DHT22;31358;46.008;11.144;2023-03-17T03:50:18;4.30;97.10
45643;DHT22;31358;46.008;11.144;2023-03-17T03:52:43;4.10;97.50
45643;DHT22;31358;46.008;11.144;2023-03-17T03:55:10;4.10;97.70
45643;DHT22;31358;46.008;11.144;2023-03-17T03:57:35;4.00;98.00
45643;DHT22;31358;46.008;11.144;2023-03-17T04:00:02;4.10;98.10
45643;DHT22;31358;46.008;11.144;2023-03-17T04:02:30;4.20;98.00
45643;DHT22;31358;46.008;11.144;2023-03-17T04:04:56;4.10;98.10
45643;DHT22;31358;46.008;11.144;2023-03-17T04:07:22;4.20;97.80
45643;DHT22;31358;46.008;11.144;2023-03-17T04:09:48;4.30;97.70
45643;DHT22;31358;46.008;11.144;2023-03-17T04:12:14;4.20;97.90
45643;DHT22;31358;46.008;11.144;2023-03-17T04:14:40;4.20;98.00
45643;DHT22;31358;46.008;11.144;2023-03-17T04:17:07;4.00;98.60
45643;DHT22;31358;46.008;11.144;2023-03-17T04:19:33;3.90;98.50
45643;DHT22;31358;46.008;11.144;2023-03-17T04:21:59;4.00;98.40
45643;DHT22;31358;46.008;11.144;2023-03-17T04:24:25;3.90;98.20
45643;DHT22;31358;46.008;11.144;2023-03-17T04:26:52;4.10;98.00
45643;DHT22;31358;46.008;11.144;2023-03-17T04:29:18;4.00;98.20
45643;DHT22;31358;46.008;11.144;2023-03-17T04:31:44;4.00;98.40
45643;DHT22;31358;46.008;11.144;2023-03-17T04:34:15;4.00;98.20
45643;DHT22;31358;46.008;11.144;2023-03-17T04:36:42;4.10;98.20
45643;DHT22;31358;46.008;11.144;2023-03-17T04:39:08;4.00;98.30
45643;DHT22;31358;46.008;11.144;2023-03-17T04:41:34;4.10;98.40
45643;DHT22;31358;46.008;11.144;2023-03-17T04:44:00;4.20;98.20
45643;DHT22;31358;46.008;11.144;2023-03-17T04:46:25;4.20;97.90
45643;DHT22;31358;46.008;11.144;2023-03-17T04:48:52;4.10;98.00
45643;DHT22;31358;46.008;11.144;2023-03-17T04:51:18;4.00;98.20
45643;DHT22;31358;46.008;11.144;2023-03-17T04:53:43;4.10;98.10
45643;DHT22;31358;46.008;11.144;2023-03-17T04:56:10;4.10;98.10
45643;DHT22;31358;46.008;11.144;2023-03-17T04:58:36;4.00;98.10
45643;DHT22;31358;46.008;11.144;2023-03-17T05:01:02;3.90;98.40
45643;DHT22;31358;46.008;11.144;2023-03-17T05:03:28;3.80;98.70
45643;DHT22;31358;46.008;11.144;2023-03-17T05:05:56;3.60;99.10
45643;DHT22;31358;46.008;11.144;2023-03-17T05:08:22;3.60;99.20
45643;DHT22;31358;46.008;11.144;2023-03-17T05:10:48;3.50;99.50
45643;DHT22;31358;46.008;11.144;2023-03-17T05:13:14;3.50;99.70
45643;DHT22;31358;46.008;11.144;2023-03-17T05:15:45;3.50;99.70
45643;DHT22;31358;46.008;11.144;2023-03-17T05:18:11;3.50;99.90
45643;DHT22;31358;46.008;11.144;2023-03-17T05:20:37;3.40;99.90
45643;DHT22;31358;46.008;11.144;2023-03-17T05:23:03;3.50;99.90
45643;DHT22;31358;46.008;11.144;2023-03-17T05:25:28;3.60;99.90
45643;DHT22;31358;46.008;11.144;2023-03-17T05:27:54;3.90;99.30
45643;DHT22;31358;46.008;11.144;2023-03-17T05:30:20;3.80;99.50
45643;DHT22;31358;46.008;11.144;2023-03-17T05:32:45;3.80;99.50
45643;DHT22;31358;46.008;11.144;2023-03-17T05:35:11;3.70;99.50
45643;DHT22;31358;46.008;11.144;2023-03-17T05:37:37;3.60;99.80
45643;DHT22;31358;46.008;11.144;2023-03-17T05:40:03;3.60;99.80
45643;DHT22;31358;46.008;11.144;2023-03-17T05:42:29;3.60;99.60
45643;DHT22;31358;46.008;11.144;2023-03-17T05:44:55;3.60;99.70
45643;DHT22;31358;46.008;11.144;2023-03-17T05:47:20;3.60;99.70
45643;DHT22;31358;46.008;11.144;2023-03-17T05:49:47;3.70;99.70
45643;DHT22;31358;46.008;11.144;2023-03-17T05:52:13;3.90;99.30
45643;DHT22;31358;46.008;11.144;2023-03-17T05:54:39;3.70;99.50
45643;DHT22;31358;46.008;11.144;2023-03-17T05:57:05;3.70;99.90
45643;DHT22;31358;46.008;11.144;2023-03-17T05:59:30;3.70;99.90
45643;DHT22;31358;46.008;11.144;2023-03-17T06:01:56;3.70;99.90
45643;DHT22;31358;46.008;11.144;2023-03-17T06:04:22;3.70;99.90
45643;DHT22;31358;46.008;11.144;2023-03-17T06:06:47;3.60;99.90
45643;DHT22;31358;46.008;11.144;2023-03-17T06:09:13;3.80;99.90
45643;DHT22;31358;46.008;11.144;2023-03-17T06:11:39;3.90;99.60
45643;DHT22;31358;46.008;11.144;2023-03-17T06:14:06;4.10;99.40
45643;DHT22;31358;46.008;11.144;2023-03-17T06:16:31;4.10;99.50
45643;DHT22;31358;46.008;11.144;2023-03-17T06:18:57;4.20;99.40
45643;DHT22;31358;46.008;11.144;2023-03-17T06:21:23;4.10;99.30
45643;DHT22;31358;46.008;11.144;2023-03-17T06:23:50;4.00;99.50
45643;DHT22;31358;46.008;11.144;2023-03-17T06:26:15;4.10;99.50
45643;DHT22;31358;46.008;11.144;2023-03-17T06:28:41;4.10;99.40
45643;DHT22;31358;46.008;11.144;2023-03-17T06:31:07;4.00;99.60
45643;DHT22;31358;46.008;11.144;2023-03-17T06:33:34;4.00;99.90
45643;DHT22;31358;46.008;11.144;2023-03-17T06:36:00;4.10;99.60
45643;DHT22;31358;46.008;11.144;2023-03-17T06:38:26;4.10;99.70
45643;DHT22;31358;46.008;11.144;2023-03-17T06:40:52;4.20;99.50
45643;DHT22;31358;46.008;11.144;2023-03-17T06:43:17;4.30;99.40
45643;DHT22;31358;46.008;11.144;2023-03-17T06:45:44;4.30;99.60
45643;DHT22;31358;46.008;11.144;2023-03-17T06:48:10;4.30;99.30
45643;DHT22;31358;46.008;11.144;2023-03-17T06:50:37;4.20;99.30
45643;DHT22;31358;46.008;11.144;2023-03-17T06:53:03;4.30;99.60
45643;DHT22;31358;46.008;11.144;2023-03-17T06:55:29;4.30;99.60
45643;DHT22;31358;46.008;11.144;2023-03-17T06:57:54;4.30;99.40
45643;DHT22;31358;46.008;11.144;2023-03-17T07:00:20;4.40;99.40
45643;DHT22;31358;46.008;11.144;2023-03-17T07:02:47;4.40;99.20
45643;DHT22;31358;46.008;11.144;2023-03-17T07:05:14;4.50;99.40
45643;DHT22;31358;46.008;11.144;2023-03-17T07:07:40;4.50;99.50
45643;DHT22;31358;46.008;11.144;2023-03-17T07:10:06;4.60;99.70
45643;DHT22;31358;46.008;11.144;2023-03-17T07:12:35;4.60;99.50
45643;DHT22;31358;46.008;11.144;2023-03-17T07:15:01;4.70;99.30
45643;DHT22;31358;46.008;11.144;2023-03-17T07:17:28;4.70;99.30
45643;DHT22;31358;46.008;11.144;2023-03-17T07:19:54;4.70;98.90
45643;DHT22;31358;46.008;11.144;2023-03-17T07:22:20;4.80;98.80
45643;DHT22;31358;46.008;11.144;2023-03-17T07:24:46;4.80;98.90
45643;DHT22;31358;46.008;11.144;2023-03-17T07:27:14;4.90;98.80
45643;DHT22;31358;46.008;11.144;2023-03-17T07:29:40;5.00;98.40
45643;DHT22;31358;46.008;11.144;2023-03-17T07:32:06;5.10;98.60
45643;DHT22;31358;46.008;11.144;2023-03-17T07:34:33;5.10;98.60
45643;DHT22;31358;46.008;11.144;2023-03-17T07:36:59;5.10;98.60
45643;DHT22;31358;46.008;11.144;2023-03-17T07:39:24;5.20;98.30
45643;DHT22;31358;46.008;11.144;2023-03-17T07:41:50;5.20;98.40
45643;DHT22;31358;46.008;11.144;2023-03-17T07:44:21;5.20;98.40
45643;DHT22;31358;46.008;11.144;2023-03-17T07:46:47;5.20;98.10
45643;DHT22;31358;46.008;11.144;2023-03-17T07:49:13;5.30;98.00
45643;DHT22;31358;46.008;11.144;2023-03-17T07:51:39;5.30;97.70
45643;DHT22;31358;46.008;11.144;2023-03-17T07:54:08;5.40;97.90
45643;DHT22;31358;46.008;11.144;2023-03-17T07:56:35;5.50;97.70
45643;DHT22;31358;46.008;11.144;2023-03-17T07:59:01;5.50;97.50
45643;DHT22;31358;46.008;11.144;2023-03-17T08:01:27;5.60;97.60
45643;DHT22;31358;46.008;11.144;2023-03-17T08:03:53;5.50;97.50
45643;DHT22;31358;46.008;11.144;2023-03-17T08:06:19;5.60;97.30
45643;DHT22;31358;46.008;11.144;2023-03-17T08:08:46;5.70;97.50
45643;DHT22;31358;46.008;11.144;2023-03-17T08:11:11;5.80;97.20
45643;DHT22;31358;46.008;11.144;2023-03-17T08:13:38;6.00;97.30
45643;DHT22;31358;46.008;11.144;2023-03-17T08:16:04;6.00;96.90
45643;DHT22;31358;46.008;11.144;2023-03-17T08:18:29;6.10;96.90
45643;DHT22;31358;46.008;11.144;2023-03-17T08:20:56;6.10;97.50
45643;DHT22;31358;46.008;11.144;2023-03-17T08:23:21;6.10;97.00
45643;DHT22;31358;46.008;11.144;2023-03-17T08:25:47;6.00;97.00
45643;DHT22;31358;46.008;11.144;2023-03-17T08:28:13;6.00;97.40
45643;DHT22;31358;46.008;11.144;2023-03-17T08:30:40;6.10;97.60
45643;DHT22;31358;46.008;11.144;2023-03-17T08:33:07;6.20;97.50
45643;DHT22;31358;46.008;11.144;2023-03-17T08:35:34;6.30;97.10
45643;DHT22;31358;46.008;11.144;2023-03-17T08:38:00;6.40;97.00
45643;DHT22;31358;46.008;11.144;2023-03-17T08:40:27;6.40;96.80
45643;DHT22;31358;46.008;11.144;2023-03-17T08:42:52;6.50;96.70
45643;DHT22;31358;46.008;11.144;2023-03-17T08:45:18;6.50;96.70
45643;DHT22;31358;46.008;11.144;2023-03-17T08:47:45;6.60;97.20
45643;DHT22;31358;46.008;11.144;2023-03-17T08:50:19;6.70;96.60
45643;DHT22;31358;46.008;11.144;2023-03-17T08:52:45;6.70;96.10
45643;DHT22;31358;46.008;11.144;2023-03-17T08:55:12;6.80;96.10
45643;DHT22;31358;46.008;11.144;2023-03-17T08:57:38;6.90;96.20
45643;DHT22;31358;46.008;11.144;2023-03-17T09:00:04;7.00;95.80
45643;DHT22;31358;46.008;11.144;2023-03-17T09:02:40;7.10;96.10
45643;DHT22;31358;46.008;11.144;2023-03-17T09:05:08;7.30;96.30
45643;DHT22;31358;46.008;11.144;2023-03-17T09:07:35;7.40;96.10
45643;DHT22;31358;46.008;11.144;2023-03-17T09:10:02;7.30;95.80
45643;DHT22;31358;46.008;11.144;2023-03-17T09:12:28;7.50;95.90
45643;DHT22;31358;46.008;11.144;2023-03-17T09:14:54;7.60;95.80
45643;DHT22;31358;46.008;11.144;2023-03-17T09:17:21;7.60;95.60
45643;DHT22;31358;46.008;11.144;2023-03-17T09:19:47;7.60;95.20
45643;DHT22;31358;46.008;11.144;2023-03-17T09:22:14;7.70;95.80
45643;DHT22;31358;46.008;11.144;2023-03-17T09:24:41;7.80;95.60
45643;DHT22;31358;46.008;11.144;2023-03-17T09:27:07;7.90;95.40
45643;DHT22;31358;46.008;11.144;2023-03-17T09:29:32;8.00;94.40
45643;DHT22;31358;46.008;11.144;2023-03-17T09:31:59;8.10;94.90
45643;DHT22;31358;46.008;11.144;2023-03-17T09:34:25;8.10;94.60
45643;DHT22;31358;46.008;11.144;2023-03-17T09:36:52;8.30;94.60
45643;DHT22;31358;46.008;11.144;2023-03-17T09:39:18;8.70;94.00
45643;DHT22;31358;46.008;11.144;2023-03-17T09:41:52;9.10;94.10
45643;DHT22;31358;46.008;11.144;2023-03-17T09:49:50;9.40;93.00
45643;DHT22;31358;46.008;11.144;2023-03-17T09:52:26;9.60;92.80
45643;DHT22;31358;46.008;11.144;2023-03-17T09:54:53;9.80;92.20
45643;DHT22;31358;46.008;11.144;2023-03-17T09:57:34;9.80;92.70
45643;DHT22;31358;46.008;11.144;2023-03-17T10:00:26;9.70;92.70
45643;DHT22;31358;46.008;11.144;2023-03-17T10:02:54;9.80;92.80
45643;DHT22;31358;46.008;11.144;2023-03-17T10:05:23;9.90;92.00
45643;DHT22;31358;46.008;11.144;2023-03-17T10:10:44;9.60;92.10
45643;DHT22;31358;46.008;11.144;2023-03-17T10:13:36;9.70;92.30
45643;DHT22;31358;46.008;11.144;2023-03-17T10:16:11;9.90;92.30
45643;DHT22;31358;46.008;11.144;2023-03-17T10:18:53;9.80;91.70
45643;DHT22;31358;46.008;11.144;2023-03-17T10:21:24;9.80;91.80
45643;DHT22;31358;46.008;11.144;2023-03-17T10:23:52;10.00;91.60
45643;DHT22;31358;46.008;11.144;2023-03-17T10:26:36;9.90;91.20
45643;DHT22;31358;46.008;11.144;2023-03-17T10:29:13;9.90;91.80
45643;DHT22;31358;46.008;11.144;2023-03-17T10:31:40;10.10;91.60
45643;DHT22;31358;46.008;11.144;2023-03-17T10:36:40;10.40;91.30
45643;DHT22;31358;46.008;11.144;2023-03-17T10:39:11;10.50;90.80
45643;DHT22;31358;46.008;11.144;2023-03-17T10:41:45;10.30;90.30
45643;DHT22;31358;46.008;11.144;2023-03-17T10:47:02;11.40;90.20
45643;DHT22;31358;46.008;11.144;2023-03-17T10:49:34;10.90;89.50
45643;DHT22;31358;46.008;11.144;2023-03-17T10:52:06;10.90;90.00
45643;DHT22;31358;46.008;11.144;2023-03-17T10:54:34;11.00;90.20
45643;DHT22;31358;46.008;11.144;2023-03-17T10:57:02;11.30;90.50
45643;DHT22;31358;46.008;11.144;2023-03-17T10:59:37;11.20;89.70
45643;DHT22;31358;46.008;11.144;2023-03-17T11:02:28;11.00;88.80
45643;DHT22;31358;46.008;11.144;2023-03-17T11:05:06;11.30;89.50
45643;DHT22;31358;46.008;11.144;2023-03-17T11:07:38;11.40;89.50
45643;DHT22;31358;46.008;11.144;2023-03-17T11:10:18;11.50;89.90
45643;DHT22;31358;46.008;11.144;2023-03-17T11:12:47;11.70;89.60
45643;DHT22;31358;46.008;11.144;2023-03-17T11:15:16;11.70;88.50
45643;DHT22;31358;46.008;11.144;2023-03-17T11:20:42;11.70;88.90
45643;DHT22;31358;46.008;11.144;2023-03-17T11:29:10;12.30;88.10
45643;DHT22;31358;46.008;11.144;2023-03-17T11:42:32;12.30;86.40
45643;DHT22;31358;46.008;11.144;2023-03-17T11:56:02;12.80;86.70
45643;DHT22;31358;46.008;11.144;2023-03-17T11:58:54;12.70;84.90
45643;DHT22;31358;46.008;11.144;2023-03-17T12:01:25;12.70;85.30
45643;DHT22;31358;46.008;11.144;2023-03-17T12:06:39;13.10;85.50
45643;DHT22;31358;46.008;11.144;2023-03-17T12:09:25;13.10;85.50
45643;DHT22;31358;46.008;11.144;2023-03-17T12:11:52;13.20;86.90
45643;DHT22;31358;46.008;11.144;2023-03-17T12:14:40;13.10;86.20
45643;DHT22;31358;46.008;11.144;2023-03-17T12:17:43;13.40;86.50
45643;DHT22;31358;46.008;11.144;2023-03-17T12:22:47;13.30;83.90
45643;DHT22;31358;46.008;11.144;2023-03-17T12:25:31;13.50;83.60
45643;DHT22;31358;46.008;11.144;2023-03-17T12:28:05;13.70;84.00
45643;DHT22;31358;46.008;11.144;2023-03-17T12:30:52;13.80;83.20
45643;DHT22;31358;46.008;11.144;2023-03-17T12:33:43;13.50;83.30
45643;DHT22;31358;46.008;11.144;2023-03-17T12:36:13;13.90;84.40
45643;DHT22;31358;46.008;11.144;2023-03-17T12:38:49;14.10;83.60
45643;DHT22;31358;46.008;11.144;2023-03-17T12:49:47;14.40;83.80
45643;DHT22;31358;46.008;11.144;2023-03-17T12:52:24;14.80;83.90
45643;DHT22;31358;46.008;11.144;2023-03-17T12:54:53;15.00;82.60
45643;DHT22;31358;46.008;11.144;2023-03-17T12:57:28;15.10;82.50
45643;DHT22;31358;46.008;11.144;2023-03-17T13:00:04;15.00;80.60
45643;DHT22;31358;46.008;11.144;2023-03-17T13:02:37;15.00;83.30
45643;DHT22;31358;46.008;11.144;2023-03-17T13:05:13;15.00;81.40
45643;DHT22;31358;46.008;11.144;2023-03-17T13:07:49;14.90;83.10
45643;DHT22;31358;46.008;11.144;2023-03-17T13:10:35;15.00;83.70
45643;DHT22;31358;46.008;11.144;2023-03-17T13:15:54;14.90;82.10
45643;DHT22;31358;46.008;11.144;2023-03-17T13:26:02;14.90;80.80
45643;DHT22;31358;46.008;11.144;2023-03-17T13:33:52;15.00;79.00
45643;DHT22;31358;46.008;11.144;2023-03-17T13:36:26;14.90;80.30
45643;DHT22;31358;46.008;11.144;2023-03-17T13:49:28;15.20;79.00
45643;DHT22;31358;46.008;11.144;2023-03-17T13:56:53;15.20;78.80
45643;DHT22;31358;46.008;11.144;2023-03-17T13:59:20;15.40;78.40
45643;DHT22;31358;46.008;11.144;2023-03-17T14:02:11;15.40;77.70
45643;DHT22;31358;46.008;11.144;2023-03-17T14:07:23;15.30;77.20
45643;DHT22;31358;46.008;11.144;2023-03-17T14:09:55;15.40;77.70
45643;DHT22;31358;46.008;11.144;2023-03-17T14:12:43;15.30;78.30
45643;DHT22;31358;46.008;11.144;2023-03-17T14:15:20;15.40;77.70
45643;DHT22;31358;46.008;11.144;2023-03-17T14:18:01;15.50;78.80
45643;DHT22;31358;46.008;11.144;2023-03-17T14:37:59;15.50;76.80
45643;DHT22;31358;46.008;11.144;2023-03-17T14:40:28;15.20;77.10
45643;DHT22;31358;46.008;11.144;2023-03-17T14:42:55;15.10;76.20
45643;DHT22;31358;46.008;11.144;2023-03-17T14:45:40;15.20;77.20
45643;DHT22;31358;46.008;11.144;2023-03-17T14:48:14;15.10;76.60
45643;DHT22;31358;46.008;11.144;2023-03-17T14:50:53;15.20;77.30
45643;DHT22;31358;46.008;11.144;2023-03-17T14:53:20;15.20;77.10
45643;DHT22;31358;46.008;11.144;2023-03-17T14:55:50;15.20;76.40
45643;DHT22;31358;46.008;11.144;2023-03-17T14:58:30;15.00;76.40
45643;DHT22;31358;46.008;11.144;2023-03-17T15:01:00;15.00;76.10
45643;DHT22;31358;46.008;11.144;2023-03-17T15:03:29;15.00;76.80
45643;DHT22;31358;46.008;11.144;2023-03-17T15:06:31;15.10;76.90
45643;DHT22;31358;46.008;11.144;2023-03-17T15:09:15;15.10;76.90
45643;DHT22;31358;46.008;11.144;2023-03-17T15:11:42;15.20;76.10
45643;DHT22;31358;46.008;11.144;2023-03-17T15:14:23;15.20;75.70
45643;DHT22;31358;46.008;11.144;2023-03-17T15:16:51;15.30;76.50
45643;DHT22;31358;46.008;11.144;2023-03-17T15:21:49;15.40;77.60
45643;DHT22;31358;46.008;11.144;2023-03-17T15:27:17;15.20;76.00
45643;DHT22;31358;46.008;11.144;2023-03-17T15:29:44;15.00;76.10
45643;DHT22;31358;46.008;11.144;2023-03-17T15:32:11;15.00;77.30
45643;DHT22;31358;46.008;11.144;2023-03-17T15:34:37;15.00;76.90
45643;DHT22;31358;46.008;11.144;2023-03-17T15:37:04;15.00;77.40
45643;DHT22;31358;46.008;11.144;2023-03-17T15:39:30;14.90;78.60
45643;DHT22;31358;46.008;11.144;2023-03-17T15:41:56;14.80;78.20
45643;DHT22;31358;46.008;11.144;2023-03-17T15:44:21;14.60;78.80
45643;DHT22;31358;46.008;11.144;2023-03-17T15:46:47;14.50;79.00
45643;DHT22;31358;46.008;11.144;2023-03-17T15:49:13;14.40;79.70
45643;DHT22;31358;46.008;11.144;2023-03-17T15:51:38;14.30;79.50
45643;DHT22;31358;46.008;11.144;2023-03-17T15:54:04;14.20;78.90
45643;DHT22;31358;46.008;11.144;2023-03-17T15:56:30;14.10;79.10
45643;DHT22;31358;46.008;11.144;2023-03-17T15:58:56;13.90;79.10
45643;DHT22;31358;46.008;11.144;2023-03-17T16:01:21;13.90;78.20
45643;DHT22;31358;46.008;11.144;2023-03-17T16:03:47;13.80;78.30
45643;DHT22;31358;46.008;11.144;2023-03-17T16:06:19;13.80;78.90
45643;DHT22;31358;46.008;11.144;2023-03-17T16:08:47;13.50;80.10
45643;DHT22;31358;46.008;11.144;2023-03-17T16:11:14;13.40;80.40
45643;DHT22;31358;46.008;11.144;2023-03-17T16:13:40;13.30;80.00
45643;DHT22;31358;46.008;11.144;2023-03-17T16:16:15;13.30;80.40
45643;DHT22;31358;46.008;11.144;2023-03-17T16:18:42;13.20;79.90
45643;DHT22;31358;46.008;11.144;2023-03-17T16:21:07;13.20;80.00
45643;DHT22;31358;46.008;11.144;2023-03-17T16:23:34;13.10;80.30
45643;DHT22;31358;46.008;11.144;2023-03-17T16:26:00;13.00;80.60
45643;DHT22;31358;46.008;11.144;2023-03-17T16:28:30;12.90;80.70
45643;DHT22;31358;46.008;11.144;2023-03-17T16:30:57;12.80;81.00
45643;DHT22;31358;46.008;11.144;2023-03-17T16:33:38;12.80;81.20
45643;DHT22;31358;46.008;11.144;2023-03-17T16:36:04;12.70;81.30
45643;DHT22;31358;46.008;11.144;2023-03-17T16:38:32;12.70;81.90
45643;DHT22;31358;46.008;11.144;2023-03-17T16:40:59;12.70;81.50
45643;DHT22;31358;46.008;11.144;2023-03-17T16:43:31;12.70;81.80
45643;DHT22;31358;46.008;11.144;2023-03-17T16:45:59;12.50;82.90
45643;DHT22;31358;46.008;11.144;2023-03-17T16:48:26;12.40;81.90
45643;DHT22;31358;46.008;11.144;2023-03-17T16:50:52;12.40;80.80
45643;DHT22;31358;46.008;11.144;2023-03-17T16:53:18;12.40;81.10
45643;DHT22;31358;46.008;11.144;2023-03-17T16:55:44;12.40;81.60
45643;DHT22;31358;46.008;11.144;2023-03-17T17:00:45;12.20;82.40
45643;DHT22;31358;46.008;11.144;2023-03-17T17:03:12;12.20;81.90
45643;DHT22;31358;46.008;11.144;2023-03-17T17:05:38;12.10;81.90
45643;DHT22;31358;46.008;11.144;2023-03-17T17:08:04;12.10;82.30
45643;DHT22;31358;46.008;11.144;2023-03-17T17:10:31;12.00;83.00
45643;DHT22;31358;46.008;11.144;2023-03-17T17:12:58;12.00;82.40
45643;DHT22;31358;46.008;11.144;2023-03-17T17:15:24;11.90;82.30
45643;DHT22;31358;46.008;11.144;2023-03-17T17:17:53;11.80;82.90
45643;DHT22;31358;46.008;11.144;2023-03-17T17:20:28;11.80;83.40
45643;DHT22;31358;46.008;11.144;2023-03-17T17:22:55;11.70;83.00
45643;DHT22;31358;46.008;11.144;2023-03-17T17:25:21;11.70;83.20
45643;DHT22;31358;46.008;11.144;2023-03-17T17:27:47;11.70;82.90
45643;DHT22;31358;46.008;11.144;2023-03-17T17:30:17;11.70;82.60
45643;DHT22;31358;46.008;11.144;2023-03-17T17:32:43;11.70;82.80
45643;DHT22;31358;46.008;11.144;2023-03-17T17:35:10;11.60;82.70
45643;DHT22;31358;46.008;11.144;2023-03-17T17:37:36;11.60;82.70
45643;DHT22;31358;46.008;11.144;2023-03-17T17:40:02;11.50;82.80